createdAt,value
2022-07-30T02:10:38.693Z,98342.63
2022-07-30T02:13:34.673Z,98335.91
2022-07-30T02:34:36.687Z,98339.47
2022-07-30T02:38:25.349Z,98342.13
2022-07-30T02:41:16.686Z,98340.25
2022-07-30T03:25:15.727Z,98334.22
2022-07-30T03:28:40.748Z,98334.78
2022-07-30T03:31:37.839Z,98338.53
2022-07-30T03:34:29.699Z,98339.88
2022-07-30T03:56:10.731Z,98351.25
2022-07-30T04:18:21.716Z,98367.34
2022-07-30T05:16:23.813Z,98384.78
2022-07-30T06:38:27.843Z,98386.50
2022-07-30T08:06:30.813Z,98383.81
2022-07-30T08:54:45.568Z,98407.97
2022-07-30T08:57:39.851Z,98412.50
2022-07-30T09:00:45.300Z,98412.00
2022-07-30T09:07:36.873Z,98407.53
2022-07-30T09:28:19.885Z,98386.25
2022-07-30T09:31:01.933Z,98387.00
2022-07-30T09:33:53.876Z,98390.72
2022-07-30T09:36:37.910Z,98387.88
2022-07-30T09:39:38.930Z,98388.63
2022-07-30T09:42:29.021Z,98393.50
2022-07-30T09:48:23.038Z,98380.09
2022-07-30T09:51:15.677Z,98376.91
2022-07-30T09:53:59.351Z,98379.84
2022-07-30T09:56:53.885Z,98376.94
2022-07-30T09:59:43.937Z,98369.28
2022-07-30T10:02:34.027Z,98380.38
2022-07-30T10:05:16.563Z,98375.69
2022-07-30T10:08:16.580Z,98374.41
2022-07-30T10:11:08.637Z,98371.50
2022-07-30T10:13:59.874Z,98371.38
2022-07-30T10:16:40.671Z,98368.59
2022-07-30T10:19:40.377Z,98363.72
2022-07-30T10:22:22.365Z,98359.09
2022-07-30T10:25:11.912Z,98362.69
2022-07-30T10:27:57.689Z,98355.69
2022-07-30T10:33:40.957Z,98346.16
2022-07-30T10:36:31.921Z,98344.78
2022-07-30T10:39:13.964Z,98343.56
2022-07-30T10:42:27.920Z,98342.47
2022-07-30T10:45:18.964Z,98334.09
2022-07-30T10:48:09.911Z,98337.38
2022-07-30T10:51:10.921Z,98329.94
2022-07-30T10:54:14.921Z,98329.44
2022-07-30T10:57:31.695Z,98326.00
2022-07-30T11:00:15.548Z,98330.50
2022-07-30T11:03:41.104Z,98323.97
2022-07-30T11:10:04.286Z,98319.97
2022-07-30T11:13:01.943Z,98327.16
2022-07-30T11:16:14.905Z,98321.44
2022-07-30T11:19:56.923Z,98321.31
2022-07-30T11:22:38.883Z,98320.41
2022-07-30T11:25:54.441Z,98307.53
2022-07-30T11:29:01.925Z,98309.91
2022-07-30T11:31:58.850Z,98306.72
2022-07-30T11:34:48.938Z,98308.31
2022-07-30T11:38:08.912Z,98308.50
2022-07-30T11:41:18.937Z,98305.13
2022-07-30T11:44:32.064Z,98313.09
2022-07-30T11:47:21.947Z,98307.53
2022-07-30T11:50:12.945Z,98303.53
2022-07-30T11:52:54.306Z,98297.47
2022-07-30T11:55:49.927Z,98295.44
2022-07-30T11:58:43.954Z,98294.94
2022-07-30T12:01:23.990Z,98303.84
2022-07-30T12:04:15.962Z,98316.13
2022-07-30T12:06:56.005Z,98321.53
2022-07-30T12:09:45.960Z,98316.34
2022-07-30T12:12:29.424Z,98316.50
2022-07-30T12:15:19.944Z,98330.25
2022-07-30T12:18:27.140Z,98335.81
2022-07-30T12:21:13.989Z,98331.56
2022-07-30T12:24:04.142Z,98324.44
2022-07-30T12:26:53.945Z,98331.59
2022-07-30T12:29:44.007Z,98325.56
2022-07-30T12:32:33.969Z,98326.50
2022-07-30T12:35:23.981Z,98336.09
2022-07-30T12:38:21.970Z,98336.75
2022-07-30T12:41:14.961Z,98360.38
2022-07-30T12:43:57.042Z,98363.00
2022-07-30T12:46:50.952Z,98354.47
2022-07-30T12:49:50.251Z,98338.06
2022-07-30T12:52:34.558Z,98336.91
2022-07-30T12:55:26.985Z,98350.75
2022-07-30T12:58:09.113Z,98346.06
2022-07-30T13:01:07.011Z,98349.47
2022-07-30T13:03:47.363Z,98351.34
2022-07-30T13:06:37.979Z,98344.00
2022-07-30T13:09:20.710Z,98343.06
2022-07-30T13:12:37.987Z,98346.91
2022-07-30T13:15:22.754Z,98339.88
2022-07-30T13:18:11.983Z,98342.25
2022-07-30T13:21:04.021Z,98342.47
2022-07-30T13:23:56.022Z,98341.34
2022-07-30T13:26:36.618Z,98342.94
2022-07-30T13:29:28.999Z,98353.28
2022-07-30T13:32:09.556Z,98351.22
2022-07-30T13:35:01.543Z,98343.31
2022-07-30T13:37:52.000Z,98347.38
2022-07-30T13:40:32.180Z,98362.69
2022-07-30T13:43:22.006Z,98381.38
2022-07-30T13:46:03.200Z,98368.28
2022-07-30T13:48:53.079Z,98375.19
2022-07-30T13:51:42.994Z,98366.91
2022-07-30T13:54:33.020Z,98367.28
2022-07-30T13:57:23.023Z,98350.81
2022-07-30T14:00:06.796Z,98325.66
2022-07-30T14:02:57.030Z,98323.28
2022-07-30T14:05:42.030Z,98313.19
2022-07-30T14:08:32.026Z,98307.88
2022-07-30T14:11:22.030Z,98310.59
2022-07-30T14:14:02.093Z,98297.81
2022-07-30T14:16:58.979Z,98304.59
2022-07-30T14:19:39.077Z,98298.81
2022-07-30T14:22:29.010Z,98310.19
2022-07-30T14:25:19.006Z,98319.97
2022-07-30T14:28:09.038Z,98319.75
2022-07-30T14:30:59.014Z,98323.94
2022-07-30T14:33:49.030Z,98332.84
2022-07-30T14:36:30.156Z,98337.63
2022-07-30T14:39:23.038Z,98330.34
2022-07-30T14:42:03.095Z,98320.56
2022-07-30T14:44:56.802Z,98329.56
2022-07-30T14:47:47.032Z,98331.41
2022-07-30T14:50:27.382Z,98340.59
2022-07-30T14:53:21.862Z,98335.69
2022-07-30T14:56:12.037Z,98324.06
2022-07-30T14:58:53.097Z,98321.63
2022-07-30T15:01:43.168Z,98317.38
2022-07-30T15:04:25.404Z,98316.44
2022-07-30T15:07:15.037Z,98308.28
2022-07-30T15:10:05.030Z,98313.56
2022-07-30T15:12:45.647Z,98318.16
2022-07-30T15:15:38.378Z,98320.28
2022-07-30T15:18:28.062Z,98322.13
2022-07-30T15:21:09.149Z,98327.75
2022-07-30T15:23:59.052Z,98321.88
2022-07-30T15:26:39.322Z,98321.66
2022-07-30T15:29:29.214Z,98321.97
2022-07-30T15:32:09.128Z,98325.66
2022-07-30T15:35:13.202Z,98319.47
2022-07-30T15:38:03.076Z,98321.34
2022-07-30T15:40:43.766Z,98321.13
2022-07-30T15:43:33.046Z,98317.63
2022-07-30T15:46:23.087Z,98317.69
2022-07-30T15:49:03.179Z,98321.09
2022-07-30T15:51:58.074Z,98312.03
2022-07-30T15:54:48.140Z,98314.50
2022-07-30T15:57:28.399Z,98315.34
2022-07-30T16:00:18.081Z,98316.50
2022-07-30T16:02:59.635Z,98318.09
2022-07-30T16:05:51.155Z,98319.25
2022-07-30T16:08:42.073Z,98321.53
2022-07-30T16:11:22.226Z,98334.97
2022-07-30T16:14:12.095Z,98342.34
2022-07-30T16:16:55.240Z,98338.47
2022-07-30T16:19:45.352Z,98341.50
2022-07-30T16:22:35.066Z,98339.06
2022-07-30T16:25:25.105Z,98339.38
2022-07-30T16:28:15.096Z,98346.72
2022-07-30T16:31:05.092Z,98338.72
2022-07-30T16:33:45.198Z,98338.72
2022-07-30T16:36:35.127Z,98342.22
2022-07-30T16:39:22.158Z,98339.59
2022-07-30T16:42:05.430Z,98343.75
2022-07-30T16:44:45.492Z,98348.00
2022-07-30T16:47:35.111Z,98344.75
2022-07-30T16:50:16.037Z,98342.56
2022-07-30T16:53:08.496Z,98352.25
2022-07-30T16:55:50.453Z,98350.47
2022-07-30T16:58:40.114Z,98354.56
2022-07-30T17:01:20.473Z,98356.91
2022-07-30T17:04:10.131Z,98370.41
2022-07-30T17:06:51.636Z,98364.28
2022-07-30T17:09:41.131Z,98368.00
2022-07-30T17:12:25.272Z,98376.66
2022-07-30T17:15:15.148Z,98374.97
2022-07-30T17:18:05.130Z,98382.28
2022-07-30T17:20:45.208Z,98382.34
2022-07-30T17:23:35.138Z,98392.25
2022-07-30T17:26:15.510Z,98394.53
2022-07-30T17:29:05.140Z,98405.34
2022-07-30T17:31:59.238Z,98397.03
2022-07-30T17:34:41.485Z,98404.84
2022-07-30T17:37:31.120Z,98397.47
2022-07-30T17:40:28.495Z,98403.25
2022-07-30T17:43:13.886Z,98396.66
2022-07-30T17:46:04.120Z,98402.84
2022-07-30T17:48:44.241Z,98401.47
2022-07-30T17:51:34.139Z,98408.94
2022-07-30T17:54:14.242Z,98412.13
2022-07-30T17:57:04.150Z,98412.28
2022-07-30T17:59:54.119Z,98418.06
2022-07-30T18:02:45.164Z,98417.38
2022-07-30T18:05:25.192Z,98415.31
2022-07-30T18:08:15.148Z,98413.84
2022-07-30T18:11:05.135Z,98425.13
2022-07-30T18:13:48.524Z,98415.09
2022-07-30T18:16:38.156Z,98419.00
2022-07-30T18:19:22.650Z,98423.53
2022-07-30T18:22:17.151Z,98416.66
2022-07-30T18:25:18.968Z,98423.72
2022-07-30T18:28:09.149Z,98415.38
2022-07-30T18:30:52.025Z,98414.94
2022-07-30T18:33:42.157Z,98418.31
2022-07-30T18:36:22.513Z,98418.81
2022-07-30T18:39:12.141Z,98411.91
2022-07-30T18:41:52.686Z,98416.69
2022-07-30T18:44:42.148Z,98429.19
2022-07-30T18:47:22.470Z,98428.78
2022-07-30T18:50:12.230Z,98419.38
2022-07-30T18:52:52.578Z,98431.06
2022-07-30T18:55:42.173Z,98432.94
2022-07-30T18:58:25.630Z,98432.81
2022-07-30T19:01:15.207Z,98444.47
2022-07-30T19:03:55.680Z,98446.03
2022-07-30T19:06:47.180Z,98450.31
2022-07-30T19:09:27.641Z,98451.13
2022-07-30T19:12:17.179Z,98461.50
2022-07-30T19:14:57.901Z,98460.19
2022-07-30T19:17:47.166Z,98474.69
2022-07-30T19:20:27.584Z,98475.72
2022-07-30T19:23:20.178Z,98481.06
2022-07-30T19:26:00.543Z,98484.44
2022-07-30T19:28:50.210Z,98483.00
2022-07-30T19:31:30.573Z,98482.81
2022-07-30T19:34:20.192Z,98483.47
2022-07-30T19:37:14.178Z,98475.00
2022-07-30T19:40:14.180Z,98479.56
2022-07-30T19:42:55.780Z,98487.34
2022-07-30T19:45:48.234Z,98486.84
2022-07-30T19:48:31.519Z,98485.75
2022-07-30T19:51:21.294Z,98485.22
2022-07-30T19:54:05.595Z,98496.09
2022-07-30T19:56:55.177Z,98488.56
2022-07-30T19:59:59.603Z,98504.97
2022-07-30T20:02:53.257Z,98499.97
2022-07-30T20:05:54.817Z,98499.44
2022-07-30T20:08:44.961Z,98501.88
2022-07-30T20:11:36.266Z,98499.47
2022-07-30T20:14:26.234Z,98505.13
2022-07-30T20:17:16.193Z,98513.13
2022-07-30T20:20:08.211Z,98514.53
2022-07-30T20:22:48.718Z,98511.44
2022-07-30T20:25:38.221Z,98508.50
2022-07-30T20:28:32.224Z,98508.03
2022-07-30T20:31:13.301Z,98514.78
2022-07-30T20:34:03.219Z,98508.13
2022-07-30T20:36:44.343Z,98501.09
2022-07-30T20:39:35.232Z,98509.03
2022-07-30T20:42:15.835Z,98503.75
2022-07-30T20:45:06.229Z,98500.28
2022-07-30T20:47:59.217Z,98506.47
2022-07-30T20:50:51.240Z,98511.59
2022-07-30T20:53:33.415Z,98514.78
2022-07-30T20:56:28.244Z,98512.09
2022-07-30T20:59:23.736Z,98505.94
2022-07-30T21:02:15.271Z,98514.00
2022-07-30T21:05:05.232Z,98504.41
2022-07-30T21:07:56.232Z,98503.06
2022-07-30T21:10:38.471Z,98505.50
2022-07-30T21:13:28.254Z,98512.78
2022-07-30T21:16:22.242Z,98517.19
2022-07-30T21:19:12.229Z,98512.34
2022-07-30T21:21:54.324Z,98518.25
2022-07-30T21:24:44.245Z,98514.56
2022-07-30T21:27:39.256Z,98524.16
2022-07-30T21:30:30.285Z,98518.81
2022-07-30T21:33:20.254Z,98534.44
2022-07-30T21:36:10.312Z,98531.25
2022-07-30T21:39:04.252Z,98539.00
2022-07-30T21:41:48.065Z,98535.00
2022-07-30T21:44:41.253Z,98539.34
2022-07-30T21:47:25.109Z,98532.53
2022-07-30T21:50:19.301Z,98529.09
2022-07-30T21:53:04.104Z,98536.63
2022-07-30T21:55:57.229Z,98535.00
2022-07-30T21:58:50.270Z,98533.94
2022-07-30T22:01:38.010Z,98535.09
2022-07-30T22:07:32.803Z,98533.00
2022-07-30T22:10:25.253Z,98538.38
2022-07-30T22:13:08.954Z,98541.06
2022-07-30T22:16:03.262Z,98543.78
2022-07-30T22:18:46.813Z,98543.78
2022-07-30T22:24:40.934Z,98552.78
2022-07-30T22:27:39.456Z,98543.59
2022-07-30T22:30:23.842Z,98554.66
2022-07-30T22:33:23.259Z,98552.22
2022-07-30T22:36:24.621Z,98548.00
2022-07-30T22:39:21.291Z,98544.28
2022-07-30T22:42:15.291Z,98547.81
2022-07-30T22:44:59.098Z,98549.16
2022-07-30T22:47:54.362Z,98549.16
2022-07-30T22:50:51.738Z,98547.22
2022-07-30T22:54:03.612Z,98545.34
2022-07-30T22:56:48.280Z,98544.81
2022-07-30T22:59:58.157Z,98544.78
2022-07-30T23:02:44.276Z,98556.53
2022-07-30T23:05:40.012Z,98552.59
2022-07-30T23:08:37.315Z,98553.97
2022-07-30T23:11:21.130Z,98551.56
2022-07-30T23:14:15.288Z,98551.81
2022-07-30T23:17:08.295Z,98553.38
2022-07-30T23:19:52.090Z,98552.38
2022-07-30T23:22:45.289Z,98555.88
2022-07-30T23:25:38.473Z,98558.53
2022-07-30T23:28:31.285Z,98552.41
2022-07-30T23:31:25.184Z,98557.25
2022-07-30T23:34:06.628Z,98564.78
2022-07-30T23:36:56.293Z,98557.22
2022-07-30T23:39:53.261Z,98556.38
2022-07-30T23:42:43.301Z,98558.81
2022-07-30T23:45:24.333Z,98552.91
2022-07-30T23:48:15.495Z,98562.59
2022-07-30T23:51:05.282Z,98559.13
2022-07-30T23:53:45.670Z,98556.44
2022-07-30T23:56:35.303Z,98557.72
2022-07-30T23:59:40.715Z,98559.91
